LTAG/ADF METAR and TAF weather

Enter ICAO airport designator
Station Type Date Time Source
LTAG METAR 2020/07/06 08:20 UTC NOAA

LTAG 060820Z 18005KT 9999 FEW030 32/22 Q1001 NOSIG


Station Type Date Time Source
LTAG Decoded METAR 2020/07/06 08:20 UTC NOAA

Adana / Incirlik, Turkey (LTAG) 37-00N 035-25E 66M
Jul 06, 2020 - 04:20 AM EDT / 2020.07.06 0820 UTC
Wind: from the S (180 degrees) at 6 MPH (5 KT):0
Visibility: greater than 7 mile(s):0
Sky conditions: mostly clear
Temperature: 89 F (32 C)
Heat index: 95.0 F (35.0 C):1
Dew Point: 71 F (22 C)
Relative Humidity: 55%
Pressure (altimeter): 29.56 in. Hg (1001 hPa)
ob: LTAG 060820Z 18005KT 9999 FEW030 32/22 Q1001 NOSIG
cycle: 8

Station Type Date Time Source
LTAG TAF 2020/07/06 06:03 UTC NOAA

TAF TAF LTAG 060440Z 0606/0706 VRB02KT CAVOK
BECMG 0610/0611 19012KT
BECMG 0616/0618 VRB02KT SCT020

Example: see airport list